Time;durP1;ratioP1;P1;durP2;ratioP2;P2;SDS_P1;SDS_P2;PMS_P1;PMS_P2;Temp;Humidity;BMP_temperature;BMP_pressure;BME280_temperature;BME280_humidity;BME280_pressure;Samples;Min_cycle;Max_cycle;Signal;HPM_P1;HPM_P2
2022/05/01 00:01:41;;;;;;;18.15;9.05;;;16.10;50.70;;;;;;5113441;28;20024;-59
2022/05/01 00:04:07;;;;;;;15.10;7.97;;;16.00;50.90;;;;;;5134489;27;20095;-60
2022/05/01 00:06:33;;;;;;;16.08;8.38;;;15.90;50.90;;;;;;5135477;27;20490;-58
2022/05/01 00:09:00;;;;;;;13.52;7.63;;;15.90;50.80;;;;;;5135589;27;20019;-58
2022/05/01 00:11:27;;;;;;;11.45;7.47;;;15.90;50.60;;;;;;5135317;27;20029;-58
2022/05/01 00:13:53;;;;;;;13.98;7.57;;;15.90;50.40;;;;;;5117471;27;20027;-59
2022/05/01 00:16:19;;;;;;;10.45;8.30;;;16.00;50.30;;;;;;5116961;27;20056;-64
2022/05/01 00:18:45;;;;;;;14.85;8.02;;;16.00;50.10;;;;;;5100307;27;20114;-57
2022/05/01 00:21:11;;;;;;;15.90;8.00;;;16.00;50.00;;;;;;5117798;27;20027;-58
2022/05/01 00:23:38;;;;;;;12.30;7.60;;;15.90;50.20;;;;;;5117169;27;20019;-59
2022/05/01 00:26:07;;;;;;;15.75;7.38;;;15.90;50.30;;;;;;5136277;27;20171;-59
2022/05/01 00:28:38;;;;;;;14.73;7.28;;;15.90;50.20;;;;;;5135231;27;20022;-58
2022/05/01 00:31:06;;;;;;;11.25;6.93;;;15.90;49.50;;;;;;5117396;27;20080;-59
2022/05/01 00:36:28;;;;;;;11.00;6.63;;;15.80;48.90;;;;;;5120163;27;20429;-62
2022/05/01 00:39:04;;;;;;;11.88;6.30;;;15.80;49.00;;;;;;5136240;27;20031;-58
2022/05/01 00:41:40;;;;;;;7.65;5.68;;;15.80;49.20;;;;;;5135340;27;20015;-59
2022/05/01 00:44:11;;;;;;;8.80;5.82;;;15.80;49.40;;;;;;5135487;27;20122;-59
2022/05/01 00:46:41;;;;;;;10.20;6.30;;;15.80;49.60;;;;;;5134209;27;20080;-58
2022/05/01 00:49:10;;;;;;;10.75;6.25;;;15.80;49.70;;;;;;5135640;27;20109;-59
2022/05/01 00:51:43;;;;;;;10.40;6.32;;;15.80;50.00;;;;;;5116702;27;20020;-57
2022/05/01 00:54:09;;;;;;;8.77;6.65;;;15.80;50.20;;;;;;5116902;27;20033;-59
2022/05/01 00:56:41;;;;;;;10.30;7.72;;;15.80;50.40;;;;;;5115966;27;20480;-57
2022/05/01 00:59:08;;;;;;;12.88;8.27;;;15.80;51.00;;;;;;5135137;27;20443;-59
2022/05/01 01:01:35;;;;;;;12.07;9.30;;;15.80;51.70;;;;;;5115736;27;20072;-62
2022/05/01 01:04:01;;;;;;;14.23;9.35;;;15.80;52.10;;;;;;5098034;27;20030;-62
2022/05/01 01:06:26;;;;;;;15.45;10.15;;;15.80;52.40;;;;;;5114931;27;20019;-59
2022/05/01 01:08:52;;;;;;;15.10;10.90;;;15.70;53.20;;;;;;5115377;27;20031;-57
2022/05/01 01:11:18;;;;;;;13.93;9.93;;;15.70;53.40;;;;;;5134758;27;20026;-58
2022/05/01 01:13:47;;;;;;;11.70;10.35;;;15.70;53.60;;;;;;5134073;27;20577;-58
2022/05/01 01:16:13;;;;;;;14.48;10.77;;;15.80;54.00;;;;;;5133605;27;20019;-58
2022/05/01 01:18:39;;;;;;;12.57;10.90;;;15.70;54.90;;;;;;5133903;27;20034;-58
2022/05/01 01:21:09;;;;;;;12.43;11.18;;;15.70;56.00;;;;;;5134104;27;20064;-57
2022/05/01 01:23:35;;;;;;;13.85;12.43;;;15.60;56.50;;;;;;5133703;27;20023;-59
2022/05/01 01:26:01;;;;;;;15.27;11.15;;;15.60;56.60;;;;;;5134197;27;20064;-58
2022/05/01 01:28:28;;;;;;;14.20;11.05;;;15.60;57.30;;;;;;5133657;27;20306;-58
2022/05/01 01:33:41;;;;;;;16.98;12.43;;;15.50;57.80;;;;;;5133825;27;20034;-58
2022/05/01 01:36:08;;;;;;;15.82;11.68;;;15.50;58.20;;;;;;5134126;27;20102;-59
2022/05/01 01:38:33;;;;;;;13.73;12.32;;;15.40;58.30;;;;;;5115172;27;20494;-57
2022/05/01 01:41:05;;;;;;;14.40;12.35;;;15.40;58.70;;;;;;5133977;27;20027;-56
2022/05/01 01:43:31;;;;;;;14.13;12.38;;;15.40;58.60;;;;;;5133485;27;20047;-58
2022/05/01 01:45:57;;;;;;;15.43;11.63;;;15.30;59.00;;;;;;5133469;27;20023;-64
2022/05/01 01:48:24;;;;;;;15.73;12.82;;;15.30;59.10;;;;;;5133215;27;20046;-64
2022/05/01 01:51:02;;;;;;;16.13;11.50;;;15.30;59.00;;;;;;5133421;27;20030;-64
2022/05/01 01:53:29;;;;;;;14.25;12.02;;;15.30;58.90;;;;;;5115416;27;20038;-65
2022/05/01 01:56:14;;;;;;;13.50;11.98;;;15.30;59.10;;;;;;5115195;27;20035;-64
2022/05/01 01:58:41;;;;;;;14.38;12.88;;;15.30;59.10;;;;;;5114138;27;20035;-64
2022/05/01 02:01:08;;;;;;;13.57;12.15;;;15.30;59.10;;;;;;5133534;27;20019;-65
2022/05/01 02:03:34;;;;;;;13.88;11.93;;;15.30;59.30;;;;;;5132664;27;20025;-64
2022/05/01 02:06:00;;;;;;;16.70;13.10;;;15.30;59.40;;;;;;5133339;27;20447;-63
2022/05/01 02:08:26;;;;;;;14.95;12.50;;;15.20;59.20;;;;;;5114330;27;20037;-64
2022/05/01 02:10:53;;;;;;;13.77;12.30;;;15.20;59.50;;;;;;5114889;27;20072;-64
2022/05/01 02:13:19;;;;;;;14.90;12.90;;;15.20;60.40;;;;;;5133258;27;20102;-64
2022/05/01 02:15:45;;;;;;;15.68;12.43;;;15.20;59.80;;;;;;5133067;27;20168;-63
2022/05/01 02:18:11;;;;;;;13.85;12.07;;;15.20;59.80;;;;;;5133365;27;20531;-64
2022/05/01 02:23:23;;;;;;;14.18;11.85;;;15.10;60.20;;;;;;5133097;27;20072;-64
2022/05/01 02:25:50;;;;;;;13.52;12.07;;;15.20;60.20;;;;;;5113873;27;20077;-64
2022/05/01 02:28:16;;;;;;;13.80;11.73;;;15.10;60.10;;;;;;5133249;27;20055;-64
2022/05/01 02:30:42;;;;;;;15.18;12.13;;;15.10;60.80;;;;;;5132476;27;20031;-64
2022/05/01 02:33:09;;;;;;;14.63;12.70;;;15.10;60.50;;;;;;5132820;27;20053;-64
2022/05/01 02:35:35;;;;;;;14.10;11.95;;;15.00;60.80;;;;;;5113900;27;20023;-64
2022/05/01 02:38:04;;;;;;;15.15;11.70;;;15.00;60.60;;;;;;5132878;27;20054;-62
2022/05/01 02:40:31;;;;;;;15.63;12.50;;;15.00;60.60;;;;;;5132131;27;20476;-67
2022/05/01 02:42:58;;;;;;;15.10;12.30;;;15.00;61.00;;;;;;5132892;27;20088;-63
2022/05/01 02:45:24;;;;;;;14.63;12.52;;;15.00;60.80;;;;;;5133004;27;20499;-63
2022/05/01 02:47:50;;;;;;;13.55;12.10;;;15.00;61.00;;;;;;5132070;27;20019;-64
2022/05/01 02:50:16;;;;;;;13.63;12.23;;;15.00;61.10;;;;;;5114531;27;20030;-64
2022/05/01 02:52:42;;;;;;;14.68;11.80;;;14.90;61.30;;;;;;5131861;27;20027;-63
2022/05/01 02:55:09;;;;;;;14.48;12.52;;;14.90;61.70;;;;;;5132644;27;20502;-63
2022/05/01 02:57:35;;;;;;;13.27;11.82;;;14.80;61.70;;;;;;5131859;27;20026;-63
2022/05/01 03:00:04;;;;;;;14.43;11.90;;;14.80;61.70;;;;;;5132477;27;20027;-65
2022/05/01 03:02:30;;;;;;;16.10;11.77;;;14.80;61.90;;;;;;5113598;27;20159;-64
2022/05/01 03:04:56;;;;;;;15.52;12.85;;;14.80;61.80;;;;;;5114050;27;20110;-63
2022/05/01 03:07:22;;;;;;;13.75;12.35;;;14.80;61.80;;;;;;5132719;27;20034;-64
2022/05/01 03:09:47;;;;;;;16.45;12.20;;;14.80;61.80;;;;;;5131672;27;20027;-64
2022/05/01 03:12:13;;;;;;;15.40;12.95;;;14.70;61.90;;;;;;5132542;27;20023;-63
2022/05/01 03:14:39;;;;;;;13.05;11.65;;;14.80;62.00;;;;;;5131720;27;20492;-64
2022/05/01 03:17:04;;;;;;;13.68;12.18;;;14.80;61.70;;;;;;5132542;27;20383;-63
2022/05/01 03:22:14;;;;;;;14.07;12.57;;;14.80;61.70;;;;;;5132883;28;20038;-64
2022/05/01 03:24:41;;;;;;;15.18;11.93;;;14.80;61.90;;;;;;5112943;28;20015;-66
2022/05/01 03:27:07;;;;;;;13.65;12.25;;;14.80;62.10;;;;;;5132114;28;20046;-63
2022/05/01 03:29:34;;;;;;;14.93;12.68;;;14.80;62.10;;;;;;5132379;27;20084;-64
2022/05/01 03:32:01;;;;;;;14.20;12.30;;;14.70;62.40;;;;;;5132060;28;20030;-64
2022/05/01 03:34:27;;;;;;;15.95;12.68;;;14.80;62.20;;;;;;5132549;27;20026;-63
2022/05/01 03:36:56;;;;;;;13.48;12.02;;;14.70;62.30;;;;;;5131607;27;20295;-64
2022/05/01 03:39:21;;;;;;;14.88;12.48;;;14.70;62.40;;;;;;5135684;27;20034;-64
2022/05/01 03:41:47;;;;;;;15.02;12.32;;;14.70;62.30;;;;;;5135925;27;20027;-64
2022/05/01 03:44:13;;;;;;;15.73;13.07;;;14.70;62.20;;;;;;5135980;27;20039;-65
2022/05/01 03:46:39;;;;;;;15.82;12.70;;;14.70;62.30;;;;;;5135668;27;20379;-64
2022/05/01 03:49:11;;;;;;;13.73;12.18;;;14.80;62.40;;;;;;5136453;27;20384;-63
2022/05/01 03:51:37;;;;;;;13.45;12.05;;;14.70;62.20;;;;;;5117883;27;20068;-63
2022/05/01 03:54:05;;;;;;;13.13;11.75;;;14.80;62.10;;;;;;5136084;27;20058;-64
2022/05/01 03:56:32;;;;;;;13.02;11.60;;;14.70;62.40;;;;;;5136422;27;20027;-65
2022/05/01 03:58:59;;;;;;;13.65;12.18;;;14.80;62.40;;;;;;5117342;27;20034;-65
2022/05/01 04:01:26;;;;;;;14.30;12.02;;;14.80;62.20;;;;;;5136437;27;20026;-64
2022/05/01 04:03:53;;;;;;;15.63;11.85;;;14.90;62.00;;;;;;5135226;27;20019;-63
2022/05/01 04:06:19;;;;;;;14.23;12.25;;;14.90;61.90;;;;;;5135967;27;20019;-63
2022/05/01 04:08:45;;;;;;;14.10;11.65;;;15.00;61.80;;;;;;5135548;27;20190;-67
2022/05/01 04:11:11;;;;;;;13.05;11.60;;;15.10;61.90;;;;;;5117529;27;20065;-63
2022/05/01 04:13:55;;;;;;;13.05;11.68;;;15.00;61.90;;;;;;5135646;27;20034;-63
2022/05/01 04:16:21;;;;;;;14.50;11.63;;;15.10;61.90;;;;;;5135890;27;20023;-65
2022/05/01 04:18:46;;;;;;;14.32;11.88;;;15.10;61.70;;;;;;5134996;27;20020;-64
2022/05/01 04:21:13;;;;;;;13.00;11.60;;;15.10;61.50;;;;;;5135581;27;20421;-64
2022/05/01 04:23:39;;;;;;;12.27;10.98;;;15.20;61.50;;;;;;5134806;27;20019;-64
2022/05/01 04:26:05;;;;;;;13.05;11.55;;;15.20;61.40;;;;;;5135699;27;20102;-64
2022/05/01 04:28:30;;;;;;;13.65;11.98;;;15.20;61.20;;;;;;5135435;27;20076;-65
2022/05/01 04:30:56;;;;;;;15.60;11.60;;;15.30;61.00;;;;;;5135016;27;20364;-64
2022/05/01 04:33:22;;;;;;;18.73;11.15;;;15.30;61.00;;;;;;5134995;27;20091;-65
2022/05/01 04:35:50;;;;;;;14.27;11.90;;;15.30;60.90;;;;;;5115005;27;20031;-63
2022/05/01 04:38:24;;;;;;;15.60;12.10;;;15.30;61.10;;;;;;5134376;27;20103;-62
2022/05/01 04:40:55;;;;;;;14.98;12.00;;;15.30;61.10;;;;;;5134689;27;20084;-63
2022/05/01 04:43:23;;;;;;;13.93;11.43;;;15.40;61.00;;;;;;5134801;27;20095;-63
2022/05/01 04:45:51;;;;;;;13.85;12.07;;;15.40;60.80;;;;;;5116210;27;20057;-62
2022/05/01 04:48:19;;;;;;;13.95;12.43;;;15.40;60.80;;;;;;5134919;27;20015;-63
2022/05/01 04:50:45;;;;;;;18.67;12.25;;;15.50;60.60;;;;;;5133185;27;20027;-63
2022/05/01 04:53:12;;;;;;;15.60;12.82;;;15.50;60.40;;;;;;5134488;27;20115;-62
2022/05/01 04:55:39;;;;;;;14.48;12.50;;;15.60;60.20;;;;;;5133904;27;20034;-64
2022/05/01 04:58:05;;;;;;;15.70;13.10;;;15.60;60.10;;;;;;5115599;27;20106;-62
2022/05/01 05:00:32;;;;;;;12.25;10.98;;;15.70;59.90;;;;;;5133948;27;20019;-63
2022/05/01 05:02:58;;;;;;;13.50;12.00;;;15.80;59.70;;;;;;5133614;27;20101;-62
2022/05/01 05:05:26;;;;;;;13.90;12.38;;;15.90;59.50;;;;;;5133919;27;20398;-62
2022/05/01 05:07:52;;;;;;;16.55;14.35;;;15.90;59.30;;;;;;5114467;27;20047;-62
2022/05/01 05:10:18;;;;;;;13.82;11.80;;;15.90;59.20;;;;;;5133774;27;20058;-63
2022/05/01 05:12:46;;;;;;;13.32;12.00;;;16.00;59.00;;;;;;5114740;27;20436;-62
2022/05/01 05:15:15;;;;;;;12.98;11.55;;;16.10;58.80;;;;;;5133521;27;20051;-62
2022/05/01 05:17:42;;;;;;;15.60;12.18;;;16.10;58.80;;;;;;5133640;27;20027;-65
2022/05/01 05:20:11;;;;;;;14.48;12.95;;;16.00;58.80;;;;;;5114860;27;20077;-63
2022/05/01 05:22:37;;;;;;;17.25;11.93;;;16.10;58.70;;;;;;5133609;27;20019;-62
2022/05/01 05:25:04;;;;;;;13.68;11.52;;;16.40;58.40;;;;;;5132890;27;20504;-63
2022/05/01 05:27:30;;;;;;;17.42;12.13;;;16.40;57.80;;;;;;5133254;27;20027;-63
2022/05/01 05:29:57;;;;;;;14.80;12.13;;;16.50;57.70;;;;;;5133207;27;20023;-62
2022/05/01 05:32:24;;;;;;;13.00;11.60;;;16.60;57.60;;;;;;5114973;27;20023;-63
2022/05/01 05:34:50;;;;;;;12.13;10.90;;;16.70;57.20;;;;;;5133072;27;20027;-62
2022/05/01 05:37:17;;;;;;;13.38;11.73;;;16.80;57.10;;;;;;5133406;27;20395;-63
2022/05/01 05:39:42;;;;;;;14.52;12.15;;;16.90;56.70;;;;;;5132916;27;20046;-64
2022/05/01 05:42:09;;;;;;;14.02;11.88;;;16.80;56.50;;;;;;5114508;27;20399;-62
2022/05/01 05:44:34;;;;;;;13.88;11.90;;;16.80;56.50;;;;;;5114898;27;20019;-62
2022/05/01 05:47:00;;;;;;;13.73;12.25;;;16.80;56.50;;;;;;5114156;27;20687;-62
2022/05/01 05:49:26;;;;;;;12.45;11.15;;;16.80;56.70;;;;;;5132076;27;20652;-63
2022/05/01 05:51:52;;;;;;;16.02;12.18;;;16.80;56.70;;;;;;5132682;27;20041;-63
2022/05/01 05:54:17;;;;;;;12.90;11.55;;;16.80;56.70;;;;;;5132857;27;20049;-63
2022/05/01 05:56:43;;;;;;;13.52;12.00;;;16.80;56.70;;;;;;5132256;27;20077;-63
2022/05/01 05:59:09;;;;;;;14.20;11.75;;;16.90;56.70;;;;;;5132136;27;20027;-62
2022/05/01 06:01:35;;;;;;;14.57;11.63;;;16.90;56.70;;;;;;5113416;27;20434;-63
2022/05/01 06:04:01;;;;;;;13.15;11.52;;;17.00;56.40;;;;;;5131718;27;20026;-63
2022/05/01 06:06:26;;;;;;;12.98;10.60;;;17.10;56.00;;;;;;5132916;27;20076;-63
2022/05/01 06:08:52;;;;;;;13.10;11.80;;;17.30;55.70;;;;;;5132543;27;20065;-61
2022/05/01 06:11:18;;;;;;;13.00;11.25;;;17.40;55.40;;;;;;5113962;27;20361;-65
2022/05/01 06:13:43;;;;;;;11.98;10.77;;;17.60;55.10;;;;;;5132418;27;20047;-64
2022/05/01 06:16:09;;;;;;;11.80;10.55;;;17.80;54.40;;;;;;5132460;27;20640;-63
2022/05/01 06:18:35;;;;;;;12.63;10.95;;;18.10;54.10;;;;;;5132851;27;20027;-63
2022/05/01 06:21:00;;;;;;;12.60;10.38;;;18.20;53.40;;;;;;5113057;27;20483;-63
2022/05/01 06:23:26;;;;;;;13.50;10.70;;;18.40;52.90;;;;;;5132312;27;20016;-63
2022/05/01 06:25:52;;;;;;;12.35;10.88;;;18.60;52.40;;;;;;5131635;27;20023;-62
2022/05/01 06:28:18;;;;;;;12.73;11.30;;;18.70;52.20;;;;;;5132282;27;20073;-63
2022/05/01 06:30:45;;;;;;;12.30;10.85;;;18.70;51.60;;;;;;5114131;27;20028;-64
2022/05/01 06:33:20;;;;;;;11.07;9.88;;;18.80;51.50;;;;;;5113735;27;20023;-64
2022/05/01 06:35:50;;;;;;;12.80;11.35;;;18.80;51.20;;;;;;5132779;27;20023;-64
2022/05/01 06:38:16;;;;;;;13.18;10.73;;;18.90;51.00;;;;;;5132438;27;20480;-64
2022/05/01 06:40:43;;;;;;;11.38;10.27;;;18.90;51.10;;;;;;5131952;27;20031;-63
2022/05/01 06:43:11;;;;;;;12.32;10.70;;;19.00;50.90;;;;;;5130979;27;20043;-63
2022/05/01 06:45:36;;;;;;;12.82;10.55;;;19.30;50.60;;;;;;5131529;27;20019;-63
2022/05/01 06:48:02;;;;;;;13.32;11.35;;;19.60;49.90;;;;;;5131018;27;20078;-64
2022/05/01 06:50:29;;;;;;;12.27;10.38;;;20.00;49.00;;;;;;5114530;27;20037;-63
2022/05/01 06:52:55;;;;;;;11.80;10.35;;;20.10;48.20;;;;;;5132232;27;20038;-63
2022/05/01 06:55:23;;;;;;;13.65;10.15;;;20.20;48.00;;;;;;5133051;27;20027;-63
2022/05/01 06:57:49;;;;;;;12.32;10.00;;;20.30;47.40;;;;;;5096754;27;20542;-65
2022/05/01 07:00:17;;;;;;;13.23;9.88;;;20.20;47.20;;;;;;5132259;27;20054;-64
2022/05/01 07:02:49;;;;;;;12.45;10.40;;;20.20;47.50;;;;;;5132999;27;20034;-64
2022/05/01 07:05:17;;;;;;;11.40;10.02;;;20.50;46.70;;;;;;5114087;27;20019;-63
2022/05/01 07:07:43;;;;;;;10.90;9.57;;;20.80;46.20;;;;;;5132371;27;20072;-63
2022/05/01 07:10:10;;;;;;;12.88;9.13;;;21.60;45.40;;;;;;5113035;27;20154;-63
2022/05/01 07:12:38;;;;;;;11.48;9.80;;;21.70;44.10;;;;;;5131514;27;20467;-63
2022/05/01 07:15:07;;;;;;;11.40;10.05;;;22.00;44.60;;;;;;5112468;27;20046;-65
2022/05/01 07:17:33;;;;;;;10.90;8.95;;;23.30;42.90;;;;;;5132001;27;20030;-63
2022/05/01 07:19:59;;;;;;;10.50;8.85;;;25.30;40.50;;;;;;5130662;27;20025;-63
2022/05/01 07:22:26;;;;;;;9.65;8.13;;;25.90;37.60;;;;;;5113077;28;20027;-64
2022/05/01 07:24:51;;;;;;;9.50;8.55;;;25.60;36.90;;;;;;5129614;28;20019;-65
2022/05/01 07:27:17;;;;;;;10.15;8.65;;;25.00;37.40;;;;;;5112144;28;20034;-64
2022/05/01 07:29:43;;;;;;;9.88;8.88;;;24.80;37.70;;;;;;5111401;28;20539;-65
2022/05/01 07:32:09;;;;;;;8.57;7.65;;;25.00;37.80;;;;;;5130794;28;20494;-65
2022/05/01 07:34:36;;;;;;;10.15;9.15;;;25.30;36.90;;;;;;5128439;28;20023;-63
2022/05/01 07:37:02;;;;;;;8.80;7.90;;;25.20;37.30;;;;;;5125964;28;20033;-64
2022/05/01 07:39:27;;;;;;;11.10;8.00;;;26.10;36.70;;;;;;5127158;27;20031;-65
2022/05/01 07:41:53;;;;;;;9.15;8.15;;;26.10;35.80;;;;;;5125231;28;20023;-67
2022/05/01 07:44:19;;;;;;;9.73;8.00;;;26.00;35.80;;;;;;5107965;28;20243;-64
2022/05/01 07:47:03;;;;;;;9.38;8.40;;;25.50;36.10;;;;;;5126372;28;20019;-65
2022/05/01 07:49:29;;;;;;;11.45;8.35;;;24.80;36.60;;;;;;5127896;28;20027;-64
2022/05/01 07:51:56;;;;;;;11.60;8.18;;;24.00;37.70;;;;;;5126076;28;20076;-63
2022/05/01 07:54:22;;;;;;;11.00;8.70;;;23.50;38.70;;;;;;5126988;27;20208;-64
2022/05/01 07:56:48;;;;;;;9.75;8.68;;;23.10;39.40;;;;;;5109270;28;20547;-63
2022/05/01 07:59:14;;;;;;;10.20;8.70;;;22.60;40.30;;;;;;5112513;28;20444;-62
2022/05/01 08:01:40;;;;;;;13.90;8.60;;;22.30;41.00;;;;;;5131498;28;20095;-67
2022/05/01 08:06:50;;;;;;;11.25;8.50;;;21.80;42.10;;;;;;5131929;28;20071;-64
2022/05/01 08:09:16;;;;;;;10.10;8.52;;;21.60;42.60;;;;;;5131374;28;20071;-66
2022/05/01 08:11:41;;;;;;;9.55;8.65;;;21.40;42.90;;;;;;5131355;28;20034;-65
2022/05/01 08:14:09;;;;;;;9.35;8.13;;;21.30;43.30;;;;;;5130399;28;20023;-62
2022/05/01 08:16:35;;;;;;;10.25;8.43;;;21.30;43.60;;;;;;5113049;28;20025;-62
2022/05/01 08:21:45;;;;;;;9.73;8.50;;;21.00;44.30;;;;;;5131519;28;20030;-63
2022/05/01 08:24:10;;;;;;;9.52;8.52;;;20.90;44.70;;;;;;5130913;27;20019;-65
2022/05/01 08:26:37;;;;;;;11.15;8.82;;;21.10;44.80;;;;;;5136284;27;20383;-63
2022/05/01 08:29:03;;;;;;;12.73;9.80;;;21.60;43.90;;;;;;5135629;27;20020;-64
2022/05/01 08:31:28;;;;;;;13.60;9.82;;;21.40;44.50;;;;;;5135056;27;20046;-65
2022/05/01 08:33:55;;;;;;;12.55;10.30;;;20.90;45.70;;;;;;5134284;27;20023;-66
2022/05/01 08:36:21;;;;;;;15.35;10.25;;;20.70;46.20;;;;;;5116731;27;20502;-65
2022/05/01 08:38:47;;;;;;;13.45;10.27;;;20.70;46.40;;;;;;5116460;27;20046;-65
2022/05/01 08:41:13;;;;;;;13.40;10.95;;;20.60;46.80;;;;;;5116152;27;20059;-65
2022/05/01 08:43:38;;;;;;;13.73;10.73;;;20.50;47.20;;;;;;5135032;27;20487;-65
2022/05/01 08:46:19;;;;;;;12.45;10.30;;;20.60;47.40;;;;;;5115433;27;20031;-66
2022/05/01 08:48:48;;;;;;;14.68;9.65;;;20.40;47.90;;;;;;5116668;27;20110;-66
2022/05/01 08:51:16;;;;;;;11.15;9.60;;;20.00;48.50;;;;;;5134105;27;20054;-66
2022/05/01 08:53:43;;;;;;;14.10;10.82;;;19.80;49.10;;;;;;5099860;27;20030;-67
2022/05/01 08:56:10;;;;;;;11.95;9.80;;;19.70;49.60;;;;;;5134211;27;20110;-66
2022/05/01 08:58:40;;;;;;;11.15;9.52;;;19.80;49.70;;;;;;5134352;27;20138;-66
2022/05/01 09:01:08;;;;;;;11.95;10.02;;;20.00;49.40;;;;;;5134233;27;20152;-65
2022/05/01 09:03:34;;;;;;;12.75;10.20;;;20.20;49.00;;;;;;5116445;27;20060;-65
2022/05/01 09:06:00;;;;;;;12.98;10.27;;;20.40;48.70;;;;;;5116044;27;20023;-66
2022/05/01 09:08:29;;;;;;;13.65;9.80;;;20.50;48.40;;;;;;5116289;27;20029;-65
2022/05/01 09:10:55;;;;;;;13.52;9.75;;;20.50;48.40;;;;;;5116594;27;20034;-63
2022/05/01 09:13:25;;;;;;;11.40;9.63;;;20.40;48.50;;;;;;5115763;27;20027;-63
2022/05/01 09:15:51;;;;;;;12.20;10.23;;;20.40;49.00;;;;;;5134960;27;20485;-64
2022/05/01 09:18:18;;;;;;;10.93;9.82;;;20.20;49.30;;;;;;5134037;27;20023;-64
2022/05/01 09:21:08;;;;;;;11.88;10.15;;;20.00;50.20;;;;;;5116294;27;20095;-62
2022/05/01 09:23:47;;;;;;;14.10;9.90;;;19.70;50.70;;;;;;5116336;27;20023;-63
2022/05/01 09:26:14;;;;;;;14.60;9.35;;;19.40;51.70;;;;;;5133667;27;20080;-64
2022/05/01 09:28:50;;;;;;;13.73;9.63;;;19.20;52.00;;;;;;5134436;27;20027;-64
2022/05/01 09:31:17;;;;;;;11.02;9.52;;;18.90;52.60;;;;;;5133733;27;20148;-64
2022/05/01 09:33:43;;;;;;;12.10;9.65;;;18.70;53.40;;;;;;5134034;27;20023;-62
2022/05/01 09:36:33;;;;;;;9.63;8.63;;;18.60;54.50;;;;;;5114236;27;20027;-64
2022/05/01 09:39:05;;;;;;;15.88;10.10;;;18.50;55.10;;;;;;5133911;27;20034;-65
2022/05/01 09:41:30;;;;;;;11.63;9.55;;;18.50;56.10;;;;;;5134428;27;20349;-64
2022/05/01 09:43:56;;;;;;;12.55;9.57;;;18.60;56.30;;;;;;5133913;27;20046;-63
2022/05/01 09:46:29;;;;;;;10.60;9.25;;;18.50;56.60;;;;;;5133692;27;20023;-63
2022/05/01 09:49:04;;;;;;;10.85;9.55;;;18.40;57.00;;;;;;5133805;27;20019;-62
2022/05/01 09:51:33;;;;;;;12.07;9.23;;;18.40;57.20;;;;;;5115678;27;20079;-63
2022/05/01 09:54:01;;;;;;;13.70;9.57;;;18.50;57.40;;;;;;5115385;27;20055;-65
2022/05/01 09:56:26;;;;;;;13.25;9.88;;;18.70;57.40;;;;;;5133647;27;20034;-63
2022/05/01 09:59:00;;;;;;;13.68;10.05;;;18.90;57.60;;;;;;5114989;27;20015;-65
2022/05/01 10:01:26;;;;;;;12.48;10.63;;;19.00;57.10;;;;;;5132517;27;20019;-64
2022/05/01 10:03:52;;;;;;;12.00;9.80;;;19.10;57.20;;;;;;5132707;27;20096;-64
2022/05/01 10:06:19;;;;;;;12.02;9.63;;;19.20;56.80;;;;;;5131872;27;20064;-64
2022/05/01 10:08:47;;;;;;;12.80;9.80;;;19.10;56.10;;;;;;5133513;27;20125;-63
2022/05/01 10:11:16;;;;;;;12.60;10.27;;;19.10;56.20;;;;;;5114058;27;20031;-64
2022/05/01 10:13:44;;;;;;;13.82;10.10;;;19.20;56.70;;;;;;5133698;27;20387;-63
2022/05/01 10:16:11;;;;;;;14.32;10.18;;;19.20;56.40;;;;;;5129353;27;20024;-62
2022/05/01 10:18:39;;;;;;;12.07;10.68;;;19.30;55.50;;;;;;5108269;27;20030;-61
2022/05/01 10:21:06;;;;;;;11.48;10.27;;;19.50;55.10;;;;;;5131317;27;20148;-64
2022/05/01 10:23:32;;;;;;;14.07;10.43;;;19.60;55.20;;;;;;5133286;27;20023;-62
2022/05/01 10:26:27;;;;;;;13.95;10.40;;;19.70;54.90;;;;;;5133412;27;20034;-63
2022/05/01 10:29:01;;;;;;;12.23;10.82;;;19.80;55.00;;;;;;5114892;27;20026;-62
2022/05/01 10:32:21;;;;;;;11.30;10.10;;;20.00;53.30;;;;;;5114142;27;20133;-65
2022/05/01 10:34:57;;;;;;;10.18;8.95;;;20.20;52.90;;;;;;5133184;27;20429;-62
2022/05/01 10:37:47;;;;;;;10.40;8.70;;;20.20;52.60;;;;;;5131943;27;20023;-62
2022/05/01 10:40:13;;;;;;;10.35;9.23;;;20.10;52.20;;;;;;5131816;27;20119;-61
2022/05/01 10:42:50;;;;;;;9.93;8.85;;;20.10;52.20;;;;;;5131036;27;20050;-61
2022/05/01 10:45:22;;;;;;;11.50;9.05;;;19.80;51.90;;;;;;5130979;27;20019;-63
2022/05/01 10:47:49;;;;;;;12.25;10.35;;;19.60;52.30;;;;;;5131754;27;20034;-62
2022/05/01 10:50:26;;;;;;;15.38;10.38;;;19.50;52.80;;;;;;5130911;27;20027;-62
2022/05/01 10:53:02;;;;;;;11.75;9.90;;;19.50;53.50;;;;;;5132092;27;20494;-63
2022/05/01 10:55:50;;;;;;;14.05;9.98;;;19.50;54.10;;;;;;5132875;27;20033;-64
2022/05/01 10:58:26;;;;;;;11.23;9.73;;;19.40;54.70;;;;;;5132091;27;20102;-63
2022/05/01 11:00:53;;;;;;;14.15;9.23;;;19.30;54.70;;;;;;5132333;27;20115;-61
2022/05/01 11:03:29;;;;;;;12.27;10.20;;;19.20;54.80;;;;;;5131976;27;20015;-62
2022/05/01 11:06:01;;;;;;;12.98;10.43;;;19.10;55.90;;;;;;5114257;27;20019;-63
2022/05/01 11:08:29;;;;;;;12.82;10.02;;;19.10;56.70;;;;;;5131648;27;20094;-62
2022/05/01 11:10:58;;;;;;;13.88;10.32;;;19.10;57.10;;;;;;5132319;27;20476;-64
2022/05/01 11:13:31;;;;;;;14.18;10.75;;;19.00;57.80;;;;;;5113511;27;20087;-62
2022/05/01 11:15:57;;;;;;;15.05;10.93;;;19.00;58.30;;;;;;5132862;27;20023;-60
2022/05/01 11:18:43;;;;;;;13.27;10.23;;;18.90;58.40;;;;;;5113605;28;20106;-61
2022/05/01 11:21:24;;;;;;;19.75;13.82;;;18.80;58.50;;;;;;5095979;28;20043;-63
2022/05/01 11:24:06;;;;;;;26.63;19.88;;;18.70;59.70;;;;;;5114194;28;20548;-62
2022/05/01 11:26:33;;;;;;;13.18;10.98;;;18.60;59.50;;;;;;5113705;28;20034;-66
2022/05/01 11:29:10;;;;;;;11.57;10.38;;;18.60;59.60;;;;;;5132541;27;20051;-62
2022/05/01 11:31:39;;;;;;;13.45;8.93;;;18.60;59.40;;;;;;5132415;27;20015;-61
2022/05/01 11:34:17;;;;;;;10.57;9.40;;;18.70;59.30;;;;;;5132586;28;20023;-60
2022/05/01 11:37:03;;;;;;;11.38;9.25;;;18.80;59.40;;;;;;5132656;27;20016;-61
2022/05/01 11:39:50;;;;;;;11.77;9.48;;;18.90;58.90;;;;;;5113296;28;20099;-62
2022/05/01 11:42:29;;;;;;;12.15;8.13;;;19.00;58.80;;;;;;5113146;28;20035;-61
2022/05/01 11:45:00;;;;;;;11.38;9.38;;;19.20;58.50;;;;;;5113965;28;20022;-60
2022/05/01 11:47:35;;;;;;;10.30;9.00;;;19.40;59.00;;;;;;5131818;28;20019;-61
2022/05/01 11:50:02;;;;;;;13.25;8.95;;;19.50;58.70;;;;;;5132260;28;20030;-61
2022/05/01 11:52:28;;;;;;;10.48;8.20;;;19.70;58.20;;;;;;5131661;27;20035;-62
2022/05/01 11:54:59;;;;;;;10.30;7.95;;;19.80;57.70;;;;;;5114354;28;20123;-62
2022/05/01 12:03:25;;;;;;;8.98;7.57;;;19.80;56.80;;;;;;5135996;27;20022;-62
2022/05/01 12:05:51;;;;;;;8.43;7.32;;;19.70;57.20;;;;;;5136475;27;20024;-62
2022/05/01 12:08:20;;;;;;;9.20;6.97;;;19.70;57.80;;;;;;5117312;27;20486;-61
2022/05/01 12:10:47;;;;;;;9.68;6.97;;;19.70;57.00;;;;;;5136238;27;20031;-61
2022/05/01 12:13:27;;;;;;;9.60;7.40;;;19.70;57.00;;;;;;5135334;27;20525;-62
2022/05/01 12:15:53;;;;;;;8.57;6.95;;;19.80;57.20;;;;;;5117817;27;20453;-63
2022/05/01 12:18:20;;;;;;;7.45;6.63;;;19.80;57.20;;;;;;5135645;27;20055;-62
2022/05/01 12:20:46;;;;;;;8.55;6.60;;;19.80;56.60;;;;;;5117486;27;20035;-61
2022/05/01 12:23:21;;;;;;;8.40;6.60;;;19.70;56.60;;;;;;5135506;27;20521;-65
2022/05/01 12:25:52;;;;;;;8.70;7.15;;;19.70;56.50;;;;;;5117477;27;20048;-62
2022/05/01 12:28:20;;;;;;;7.05;6.00;;;19.80;56.60;;;;;;5116740;27;20174;-65
2022/05/01 12:31:08;;;;;;;7.07;5.80;;;20.00;56.00;;;;;;5135829;27;20023;-62
2022/05/01 12:33:33;;;;;;;7.60;5.88;;;20.10;54.90;;;;;;5135193;27;20027;-62
2022/05/01 12:35:59;;;;;;;8.73;6.10;;;20.30;54.60;;;;;;5135818;27;20035;-63
2022/05/01 12:38:30;;;;;;;7.05;5.70;;;20.50;54.50;;;;;;5134986;27;20029;-64
2022/05/01 12:44:00;;;;;;;8.55;5.70;;;20.80;52.70;;;;;;5135578;27;20050;-63
2022/05/01 12:46:29;;;;;;;5.57;4.97;;;20.90;52.50;;;;;;5134957;27;20030;-64
2022/05/01 12:48:58;;;;;;;6.82;5.45;;;21.00;51.90;;;;;;5135476;27;20068;-62
2022/05/01 12:51:35;;;;;;;5.95;4.25;;;21.20;51.50;;;;;;5134660;27;20464;-61
2022/05/01 12:54:09;;;;;;;5.35;4.50;;;21.20;51.00;;;;;;5116955;27;20023;-62
2022/05/01 12:56:36;;;;;;;5.65;4.70;;;21.30;50.80;;;;;;5116708;27;20186;-64
2022/05/01 12:59:22;;;;;;;7.32;5.57;;;21.30;50.40;;;;;;5135181;27;20035;-63
2022/05/01 13:01:48;;;;;;;6.82;5.53;;;21.30;51.40;;;;;;5135425;27;20504;-63
2022/05/01 13:04:34;;;;;;;7.43;5.13;;;21.40;51.90;;;;;;5116075;27;20053;-65
2022/05/01 13:06:59;;;;;;;7.63;4.45;;;21.40;51.70;;;;;;5134647;27;20027;-62